Time;durP1;ratioP1;P1;durP2;ratioP2;P2;SDS_P1;SDS_P2;PMS_P1;PMS_P2;Temp;Humidity;BMP_temperature;BMP_pressure;BME280_temperature;BME280_humidity;BME280_pressure;Samples;Min_cycle;Max_cycle;Signal;HPM_P1;HPM_P2
2021/10/09 00:01:02;;;;;;;12.33;10.50;;;12.70;37.10;;;;;;10459137;28;20803;-75
2021/10/09 00:06:05;;;;;;;10.00;9.00;;;12.70;37.30;;;;;;10452224;28;20228;-76
2021/10/09 00:11:15;;;;;;;10.47;9.33;;;12.60;37.00;;;;;;10447554;28;20754;-76
2021/10/09 00:16:20;;;;;;;10.23;9.20;;;12.60;37.00;;;;;;10452820;28;20248;-76
2021/10/09 00:21:23;;;;;;;10.40;9.33;;;12.60;37.20;;;;;;10456491;28;20224;-75
2021/10/09 00:26:26;;;;;;;11.00;8.50;;;12.60;37.20;;;;;;10457608;28;20224;-76
2021/10/09 00:31:31;;;;;;;8.97;8.17;;;12.50;37.00;;;;;;10455395;28;20762;-76
2021/10/09 00:36:34;;;;;;;9.07;8.17;;;12.50;37.20;;;;;;10450672;28;20602;-76
2021/10/09 00:41:37;;;;;;;9.90;9.00;;;12.40;37.10;;;;;;10447811;28;20221;-75
2021/10/09 00:46:43;;;;;;;12.50;9.70;;;12.40;37.20;;;;;;10447707;28;20223;-76
2021/10/09 00:51:48;;;;;;;11.97;8.93;;;12.40;37.50;;;;;;10451219;28;20612;-76
2021/10/09 00:56:53;;;;;;;10.17;9.07;;;12.40;37.50;;;;;;10449368;28;20243;-76
2021/10/09 01:02:02;;;;;;;10.67;9.13;;;12.30;37.40;;;;;;10449190;28;20251;-75
2021/10/09 01:07:06;;;;;;;10.97;9.30;;;12.30;37.60;;;;;;10451523;28;20225;-75
2021/10/09 01:12:09;;;;;;;10.00;8.73;;;12.30;37.40;;;;;;10450055;28;20243;-75
2021/10/09 01:17:14;;;;;;;10.23;9.13;;;12.20;37.40;;;;;;10447408;28;20605;-75
2021/10/09 01:22:19;;;;;;;9.57;8.67;;;12.20;37.70;;;;;;10450574;28;20725;-75
2021/10/09 01:27:23;;;;;;;10.20;8.43;;;12.20;37.70;;;;;;10449273;28;20240;-75
2021/10/09 01:32:26;;;;;;;9.63;8.37;;;12.10;37.60;;;;;;10446987;28;20235;-76
2021/10/09 01:37:38;;;;;;;8.70;7.90;;;12.10;38.20;;;;;;10451342;28;20254;-75
2021/10/09 01:42:42;;;;;;;9.20;7.90;;;12.10;37.90;;;;;;10449527;28;20228;-75
2021/10/09 01:47:45;;;;;;;9.77;8.80;;;12.10;37.50;;;;;;10452265;28;20228;-75
2021/10/09 01:52:49;;;;;;;9.20;8.30;;;12.10;37.60;;;;;;10455593;28;20220;-75
2021/10/09 01:57:52;;;;;;;8.60;7.80;;;12.10;37.60;;;;;;10443615;28;20788;-75
2021/10/09 02:03:01;;;;;;;9.47;8.57;;;12.00;37.50;;;;;;10452796;28;20225;-75
2021/10/09 02:08:05;;;;;;;8.43;7.43;;;12.00;37.30;;;;;;10457622;28;20231;-75
2021/10/09 02:13:10;;;;;;;9.73;7.70;;;11.90;37.50;;;;;;10456342;28;20229;-75
2021/10/09 02:28:55;;;;;;;8.40;7.70;;;11.80;37.40;;;;;;10449991;28;20804;-75
2021/10/09 02:33:59;;;;;;;9.60;8.70;;;11.70;37.40;;;;;;10454065;28;20225;-75
2021/10/09 02:39:04;;;;;;;9.57;8.47;;;11.70;37.60;;;;;;10443776;28;20218;-75
2021/10/09 02:44:07;;;;;;;8.80;7.87;;;11.60;37.50;;;;;;10451954;28;20706;-75
2021/10/09 02:49:10;;;;;;;8.27;7.57;;;11.60;37.50;;;;;;10450592;28;20225;-75
2021/10/09 02:54:15;;;;;;;7.33;6.63;;;11.60;37.60;;;;;;10449099;28;20232;-75
2021/10/09 02:59:18;;;;;;;9.10;8.30;;;11.50;37.80;;;;;;10452732;28;20232;-75
2021/10/09 03:04:21;;;;;;;9.03;8.23;;;11.50;37.80;;;;;;10452254;28;20237;-75
2021/10/09 03:09:25;;;;;;;9.10;8.30;;;11.40;37.90;;;;;;10450891;28;20231;-75
2021/10/09 03:14:29;;;;;;;9.50;8.50;;;11.40;38.40;;;;;;10445975;28;20715;-75
2021/10/09 03:19:32;;;;;;;10.23;9.30;;;11.30;38.20;;;;;;10441702;28;20229;-74
2021/10/09 03:24:36;;;;;;;9.60;8.30;;;11.30;38.10;;;;;;10443145;28;20224;-74
2021/10/09 03:29:40;;;;;;;8.90;8.00;;;11.30;38.30;;;;;;10447654;28;20217;-74
2021/10/09 03:34:44;;;;;;;10.70;8.57;;;11.30;38.10;;;;;;10450169;28;20225;-75
2021/10/09 03:39:51;;;;;;;10.27;9.23;;;11.30;38.20;;;;;;10442721;28;20229;-75
2021/10/09 03:44:57;;;;;;;10.50;8.73;;;11.30;38.40;;;;;;10447397;28;20733;-75
2021/10/09 03:50:07;;;;;;;9.20;8.30;;;11.30;38.30;;;;;;10445536;28;20594;-75
2021/10/09 03:55:15;;;;;;;10.30;9.30;;;11.20;38.20;;;;;;10454097;28;20228;-74
2021/10/09 04:00:18;;;;;;;8.33;7.53;;;11.20;38.40;;;;;;10452293;28;20224;-75
2021/10/09 04:05:21;;;;;;;10.30;9.40;;;11.20;38.20;;;;;;10455393;28;20739;-74
2021/10/09 04:10:26;;;;;;;15.63;9.70;;;11.20;38.30;;;;;;10453386;28;20235;-75
2021/10/09 04:15:29;;;;;;;13.67;9.50;;;11.10;38.60;;;;;;10454843;28;20584;-75
2021/10/09 04:20:33;;;;;;;12.13;8.90;;;11.10;38.50;;;;;;10448351;28;20228;-75
2021/10/09 04:25:38;;;;;;;10.23;9.13;;;11.10;38.40;;;;;;10454595;28;20244;-75
2021/10/09 04:30:41;;;;;;;9.37;8.47;;;11.10;38.90;;;;;;10456620;28;20224;-75
2021/10/09 04:35:44;;;;;;;8.73;7.83;;;11.00;38.60;;;;;;10448628;28;20682;-75
2021/10/09 04:40:49;;;;;;;10.70;9.67;;;11.00;38.60;;;;;;10447445;28;20224;-75
2021/10/09 04:45:52;;;;;;;9.97;8.93;;;11.00;38.90;;;;;;10453431;28;20223;-75
2021/10/09 04:50:55;;;;;;;11.50;9.37;;;11.00;38.60;;;;;;10455151;28;20605;-75
2021/10/09 04:56:00;;;;;;;11.03;9.77;;;11.00;38.60;;;;;;10454599;28;20708;-75
2021/10/09 05:01:03;;;;;;;9.93;9.07;;;11.00;38.80;;;;;;10448170;28;20595;-75
2021/10/09 05:06:07;;;;;;;10.27;9.37;;;10.90;38.50;;;;;;10449988;28;20225;-75
2021/10/09 05:11:12;;;;;;;11.83;8.80;;;10.90;38.50;;;;;;10451013;28;20238;-75
2021/10/09 05:16:15;;;;;;;9.07;7.20;;;10.90;38.70;;;;;;10446709;28;20225;-75
2021/10/09 05:21:22;;;;;;;10.07;8.80;;;10.80;38.40;;;;;;10446474;28;20244;-75
2021/10/09 05:26:28;;;;;;;10.37;9.37;;;10.70;38.40;;;;;;10448438;28;20255;-75
2021/10/09 05:31:32;;;;;;;10.63;9.47;;;10.70;38.90;;;;;;10448473;28;20236;-75
2021/10/09 05:36:36;;;;;;;9.30;8.40;;;10.60;38.70;;;;;;10450400;28;20272;-75
2021/10/09 05:41:41;;;;;;;10.37;9.37;;;10.60;38.80;;;;;;10455683;28;20728;-75
2021/10/09 05:46:44;;;;;;;8.77;7.87;;;10.60;38.90;;;;;;10448439;28;20240;-75
2021/10/09 05:51:55;;;;;;;11.23;10.13;;;10.60;38.70;;;;;;10453906;28;20227;-74
2021/10/09 05:57:04;;;;;;;14.17;11.67;;;10.60;38.90;;;;;;10449366;28;20291;-75
2021/10/09 07:01:03;;;;;;;19.80;15.80;;;11.00;40.80;;;;;;10453138;28;20224;-77
2021/10/09 07:06:07;;;;;;;18.33;16.17;;;11.00;41.10;;;;;;10440094;28;20228;-74
2021/10/09 07:11:10;;;;;;;18.80;16.80;;;11.10;40.90;;;;;;10442396;28;20239;-76
2021/10/09 07:16:15;;;;;;;19.83;16.27;;;11.20;41.00;;;;;;10449757;28;20716;-74
2021/10/09 07:21:18;;;;;;;18.10;16.20;;;11.20;41.60;;;;;;10441344;28;20287;-75
2021/10/09 07:26:21;;;;;;;19.90;17.83;;;11.30;41.20;;;;;;10439166;28;20721;-74
2021/10/09 07:31:26;;;;;;;20.20;18.10;;;11.40;41.50;;;;;;10454274;28;20224;-75
2021/10/09 07:36:29;;;;;;;19.63;17.40;;;11.50;42.30;;;;;;10438183;28;20232;-74
2021/10/09 07:41:32;;;;;;;19.93;17.80;;;11.50;41.50;;;;;;10450095;28;20228;-74
2021/10/09 07:46:37;;;;;;;20.70;17.63;;;11.70;41.90;;;;;;10451711;28;20290;-76
2021/10/09 07:51:40;;;;;;;18.70;16.77;;;11.80;42.30;;;;;;10453390;28;20220;-75
2021/10/09 07:56:43;;;;;;;20.23;18.10;;;11.90;42.10;;;;;;10461605;28;20307;-75
2021/10/09 08:01:48;;;;;;;19.47;17.37;;;12.00;42.30;;;;;;10459085;28;20231;-74
2021/10/09 08:06:51;;;;;;;19.97;17.87;;;12.20;42.70;;;;;;10451811;28;20220;-75
2021/10/09 08:11:54;;;;;;;19.47;17.33;;;12.30;42.00;;;;;;10444350;28;20225;-72
2021/10/09 08:16:59;;;;;;;18.70;16.80;;;12.40;42.30;;;;;;10436636;28;20235;-73
2021/10/09 08:22:06;;;;;;;18.50;16.50;;;12.60;42.60;;;;;;10439585;28;20227;-73
2021/10/09 08:43:18;;;;;;;16.67;14.87;;;13.50;43.00;;;;;;10445162;28;20251;-73
2021/10/09 08:48:27;;;;;;;18.50;15.80;;;13.70;42.70;;;;;;10451795;28;20241;-73
2021/10/09 08:53:38;;;;;;;17.83;16.03;;;14.00;42.30;;;;;;10447329;28;21291;-73
2021/10/09 08:58:43;;;;;;;17.20;14.43;;;14.20;42.00;;;;;;10439085;28;20232;-73
2021/10/09 09:04:05;;;;;;;17.23;15.43;;;14.50;41.80;;;;;;10440003;28;20974;-73
2021/10/09 09:09:18;;;;;;;15.53;13.90;;;14.70;41.10;;;;;;10438958;28;20221;-73
2021/10/09 09:25:50;;;;;;;15.87;14.17;;;15.40;40.60;;;;;;10450075;28;20227;-73
2021/10/09 09:31:10;;;;;;;17.40;15.10;;;15.60;40.80;;;;;;10449727;28;20834;-74
2021/10/09 09:36:28;;;;;;;15.53;13.93;;;15.90;40.30;;;;;;10432877;28;20225;-73
2021/10/09 09:41:41;;;;;;;16.57;13.73;;;16.00;39.30;;;;;;10433251;28;20239;-73
2021/10/09 09:47:01;;;;;;;15.43;12.83;;;16.20;40.10;;;;;;10439101;28;20271;-74
2021/10/09 09:52:26;;;;;;;13.80;11.50;;;16.40;39.20;;;;;;10429374;28;20232;-74
2021/10/09 09:57:30;;;;;;;13.90;11.97;;;16.60;39.30;;;;;;10440085;28;20224;-73
2021/10/09 10:02:39;;;;;;;18.50;12.20;;;16.70;38.80;;;;;;10438613;28;20231;-74
2021/10/09 10:07:44;;;;;;;14.63;12.47;;;16.80;38.70;;;;;;10437986;28;20240;-74
2021/10/09 10:12:48;;;;;;;13.63;11.63;;;17.00;38.40;;;;;;10439887;28;20341;-74
2021/10/09 10:17:51;;;;;;;13.77;12.37;;;17.10;38.40;;;;;;10432697;28;20245;-74
2021/10/09 10:22:58;;;;;;;13.90;11.87;;;17.20;38.30;;;;;;10443838;28;20225;-74
2021/10/09 10:28:03;;;;;;;15.07;11.47;;;17.30;37.30;;;;;;10435507;28;20278;-73
2021/10/09 10:33:41;;;;;;;11.33;10.13;;;17.40;37.70;;;;;;10434101;28;20763;-74
2021/10/09 10:39:04;;;;;;;12.60;11.30;;;17.50;36.70;;;;;;10436043;28;20233;-74
2021/10/09 10:44:09;;;;;;;13.60;11.37;;;17.60;36.60;;;;;;10446025;28;20243;-74
2021/10/09 10:49:17;;;;;;;12.37;11.07;;;17.70;37.50;;;;;;10435709;28;20668;-74
2021/10/09 10:54:38;;;;;;;12.73;11.43;;;17.80;37.30;;;;;;10436544;28;20232;-74
2021/10/09 10:59:45;;;;;;;12.47;11.17;;;17.80;36.30;;;;;;10440422;28;20251;-74
2021/10/09 11:04:50;;;;;;;11.93;10.83;;;17.90;36.80;;;;;;10439601;28;20235;-74
2021/10/09 11:10:01;;;;;;;12.33;11.00;;;17.90;36.60;;;;;;10439945;28;20702;-74
2021/10/09 11:15:17;;;;;;;12.03;10.83;;;18.00;35.80;;;;;;10438854;28;20320;-75
2021/10/09 11:20:22;;;;;;;11.67;9.73;;;18.00;35.60;;;;;;10438922;28;20238;-74
2021/10/09 11:25:32;;;;;;;10.70;9.60;;;18.10;36.60;;;;;;10437387;28;20663;-74
2021/10/09 11:30:37;;;;;;;9.93;8.93;;;18.10;35.40;;;;;;10442411;28;20225;-74
2021/10/09 11:35:42;;;;;;;10.17;9.10;;;18.20;36.00;;;;;;10442059;28;20223;-74
2021/10/09 11:40:50;;;;;;;9.67;8.20;;;18.30;35.90;;;;;;10436772;28;20227;-74
2021/10/09 11:46:04;;;;;;;11.13;8.80;;;18.40;35.50;;;;;;10441832;28;20228;-74
2021/10/09 11:56:30;;;;;;;8.70;7.87;;;18.50;35.80;;;;;;10436281;28;20240;-75
2021/10/09 12:01:37;;;;;;;11.60;8.37;;;18.50;35.50;;;;;;10438058;28;20260;-74
2021/10/09 12:06:45;;;;;;;9.17;7.90;;;18.60;35.30;;;;;;10439460;28;20944;-74
2021/10/09 12:11:50;;;;;;;9.47;8.00;;;18.60;34.50;;;;;;10435949;28;20235;-74
2021/10/09 12:16:58;;;;;;;10.77;7.43;;;18.60;34.60;;;;;;10443771;28;20756;-73
2021/10/09 12:22:03;;;;;;;8.03;6.83;;;18.60;35.30;;;;;;10450296;28;20236;-74
2021/10/09 12:27:12;;;;;;;9.50;6.30;;;18.60;34.00;;;;;;10449752;28;20225;-73
2021/10/09 12:32:17;;;;;;;7.20;6.50;;;18.60;33.50;;;;;;10455012;28;20225;-73
2021/10/09 12:37:24;;;;;;;9.23;8.30;;;18.60;34.00;;;;;;10444272;28;20229;-75
2021/10/09 12:42:29;;;;;;;19.33;15.20;;;18.60;33.80;;;;;;10442607;28;20226;-73
2021/10/09 12:47:32;;;;;;;18.40;13.83;;;18.60;33.40;;;;;;10444353;28;20620;-75
2021/10/09 12:52:35;;;;;;;8.40;7.47;;;18.60;33.60;;;;;;10445313;28;20225;-75
2021/10/09 12:57:49;;;;;;;7.10;6.20;;;18.60;33.30;;;;;;10445033;28;20239;-75
2021/10/09 13:02:52;;;;;;;7.77;6.47;;;18.60;32.10;;;;;;10433296;28;20231;-74
2021/10/09 13:07:59;;;;;;;8.50;5.50;;;18.70;33.40;;;;;;10436256;28;20331;-76
2021/10/09 13:13:05;;;;;;;8.23;5.97;;;18.70;32.80;;;;;;10433399;28;20221;-75
2021/10/09 13:18:09;;;;;;;6.07;5.50;;;18.70;32.80;;;;;;10432812;28;20225;-75
2021/10/09 13:23:12;;;;;;;6.10;5.50;;;18.80;33.30;;;;;;10426237;28;20320;-76
2021/10/09 13:28:16;;;;;;;6.60;5.40;;;18.80;33.10;;;;;;10434050;28;20237;-73
2021/10/09 13:33:20;;;;;;;5.97;5.37;;;18.80;32.30;;;;;;10435888;28;20223;-73
2021/10/09 13:38:29;;;;;;;6.27;5.60;;;18.90;32.70;;;;;;10428440;28;20236;-73
2021/10/09 13:43:34;;;;;;;6.77;5.47;;;18.90;32.70;;;;;;10438721;28;20795;-74
2021/10/09 13:48:37;;;;;;;5.93;5.33;;;18.90;32.10;;;;;;10441739;28;20235;-74
2021/10/09 13:53:41;;;;;;;9.10;4.90;;;18.90;32.20;;;;;;10430331;28;20229;-74
2021/10/09 13:58:45;;;;;;;6.23;5.00;;;18.90;31.80;;;;;;10427410;28;20240;-73
2021/10/09 14:04:05;;;;;;;5.90;5.40;;;18.90;31.30;;;;;;10423655;28;20217;-74
2021/10/09 14:09:09;;;;;;;4.53;4.00;;;18.90;32.00;;;;;;10426189;28;20950;-74
2021/10/09 14:14:15;;;;;;;4.67;4.20;;;18.90;30.80;;;;;;10438532;28;20636;-74
2021/10/09 14:19:18;;;;;;;5.53;4.50;;;18.90;30.40;;;;;;10448207;28;20229;-74
2021/10/09 14:24:21;;;;;;;5.10;4.60;;;18.90;31.10;;;;;;10439495;28;20463;-74
2021/10/09 14:29:26;;;;;;;5.53;4.30;;;18.90;31.30;;;;;;10441004;28;20712;-74
2021/10/09 14:34:29;;;;;;;4.97;4.27;;;18.80;30.90;;;;;;10428029;28;20229;-74
2021/10/09 14:39:34;;;;;;;4.60;4.20;;;18.90;31.40;;;;;;10431752;28;20717;-75
2021/10/09 14:44:39;;;;;;;6.40;4.40;;;18.90;31.40;;;;;;10435827;28;20670;-75
2021/10/09 14:49:46;;;;;;;5.47;4.20;;;18.90;30.00;;;;;;10437807;28;20227;-74
2021/10/09 14:55:02;;;;;;;5.63;4.83;;;18.90;30.60;;;;;;10437379;28;20706;-73
2021/10/09 15:16:40;;;;;;;7.10;4.77;;;18.80;30.80;;;;;;10439631;28;20233;-74
2021/10/09 15:21:44;;;;;;;5.60;5.00;;;18.70;30.20;;;;;;10433886;28;20311;-76
2021/10/09 15:26:47;;;;;;;5.70;5.20;;;18.70;30.60;;;;;;10431879;28;20815;-75
2021/10/09 15:31:51;;;;;;;7.83;5.53;;;18.70;30.70;;;;;;10430837;28;20229;-75
2021/10/09 15:36:55;;;;;;;8.47;6.57;;;18.60;30.10;;;;;;10435083;28;20887;-75
2021/10/09 15:41:58;;;;;;;6.27;5.67;;;18.60;30.70;;;;;;10431514;28;20599;-72
2021/10/09 15:47:03;;;;;;;8.20;7.50;;;18.60;30.80;;;;;;10433482;28;20224;-73
2021/10/09 15:52:07;;;;;;;10.73;8.80;;;18.60;30.40;;;;;;10443650;28;20221;-75
2021/10/09 15:57:10;;;;;;;9.93;8.90;;;18.60;31.70;;;;;;10450669;28;20229;-74
2021/10/09 16:02:14;;;;;;;7.17;6.47;;;18.70;31.90;;;;;;10445819;28;20225;-74
2021/10/09 16:07:18;;;;;;;5.90;5.40;;;18.70;31.20;;;;;;10445067;28;20229;-73
2021/10/09 16:12:21;;;;;;;7.43;5.67;;;18.80;31.20;;;;;;10446610;28;20233;-74
2021/10/09 16:17:28;;;;;;;6.27;5.53;;;18.80;31.00;;;;;;10452189;28;20238;-74
2021/10/09 16:22:31;;;;;;;5.60;5.10;;;18.80;30.50;;;;;;10455108;28;20236;-74
2021/10/09 16:27:34;;;;;;;5.47;4.97;;;18.70;31.10;;;;;;10443669;28;20541;-75
2021/10/09 16:32:39;;;;;;;5.40;4.90;;;18.60;30.90;;;;;;10442719;28;20546;-75
2021/10/09 16:37:42;;;;;;;6.10;5.33;;;18.60;30.80;;;;;;10448832;28;20226;-75
2021/10/09 16:42:45;;;;;;;5.87;5.27;;;18.50;31.00;;;;;;10445685;28;20280;-75
2021/10/09 16:47:50;;;;;;;6.20;5.60;;;18.40;31.00;;;;;;10435793;28;20251;-75
2021/10/09 16:52:58;;;;;;;5.80;5.17;;;18.30;30.90;;;;;;10438453;28;20225;-75
2021/10/09 16:58:01;;;;;;;5.97;5.40;;;18.20;31.10;;;;;;10441674;28;20611;-74
2021/10/09 17:03:06;;;;;;;6.63;5.03;;;18.10;31.00;;;;;;10439671;28;20232;-74
2021/10/09 17:08:09;;;;;;;6.03;5.43;;;17.90;30.80;;;;;;10440200;28;20243;-75
2021/10/09 17:13:12;;;;;;;8.20;5.73;;;17.80;31.10;;;;;;10438254;28;20221;-74
2021/10/09 17:18:17;;;;;;;7.60;5.27;;;17.70;31.00;;;;;;10448553;28;20240;-73
2021/10/09 17:23:20;;;;;;;6.40;5.60;;;17.60;31.00;;;;;;10445496;28;20225;-75
2021/10/09 17:28:23;;;;;;;5.93;5.33;;;17.50;31.10;;;;;;10439243;28;20236;-75
2021/10/09 17:33:28;;;;;;;6.53;5.70;;;17.40;31.00;;;;;;10446738;28;20225;-74
2021/10/09 17:38:31;;;;;;;7.30;6.00;;;17.20;30.80;;;;;;10442872;28;20240;-75
2021/10/09 17:43:34;;;;;;;7.97;6.03;;;17.10;31.10;;;;;;10445927;28;20232;-74
2021/10/09 17:48:39;;;;;;;6.77;6.07;;;17.00;31.00;;;;;;10454616;28;20224;-75
2021/10/09 17:53:42;;;;;;;7.00;6.33;;;16.90;31.00;;;;;;10448518;28;20234;-74
2021/10/09 17:58:45;;;;;;;9.10;6.53;;;16.70;30.90;;;;;;10449658;28;20225;-74
2021/10/09 18:03:50;;;;;;;7.50;6.67;;;16.60;30.90;;;;;;10448753;28;20220;-74
2021/10/09 18:08:54;;;;;;;7.00;6.30;;;16.40;30.80;;;;;;10447646;28;20225;-74
2021/10/09 18:13:57;;;;;;;7.03;6.33;;;16.40;31.30;;;;;;10444708;28;20596;-73
2021/10/09 18:19:01;;;;;;;7.00;6.30;;;16.20;30.80;;;;;;10452008;28;20224;-73
2021/10/09 18:24:05;;;;;;;6.57;5.87;;;16.10;30.70;;;;;;10449882;28;20316;-73
2021/10/09 18:29:09;;;;;;;7.00;5.90;;;16.00;30.80;;;;;;10460819;28;20442;-73
2021/10/09 18:34:13;;;;;;;9.13;5.70;;;15.90;30.80;;;;;;10444841;28;20231;-76
2021/10/09 18:39:17;;;;;;;6.63;5.93;;;15.80;30.70;;;;;;10444218;28;20231;-73
2021/10/09 18:44:20;;;;;;;7.13;6.37;;;15.70;31.00;;;;;;10449439;28;20232;-73
2021/10/09 18:49:25;;;;;;;11.57;6.53;;;15.60;31.00;;;;;;10446053;28;20696;-73
2021/10/09 18:54:28;;;;;;;7.83;6.67;;;15.50;31.80;;;;;;10441935;28;20308;-73
2021/10/09 18:59:31;;;;;;;8.00;6.43;;;15.40;31.20;;;;;;10437291;28;20247;-73
2021/10/09 19:04:36;;;;;;;7.97;6.60;;;15.30;31.30;;;;;;10440270;28;20252;-73
2021/10/09 19:09:39;;;;;;;6.30;5.70;;;15.30;31.40;;;;;;10431195;28;20229;-73
2021/10/09 19:14:43;;;;;;;6.17;5.43;;;15.20;31.60;;;;;;10437454;28;20754;-73
2021/10/09 19:19:48;;;;;;;8.17;5.80;;;15.10;31.60;;;;;;10428294;28;20229;-73
2021/10/09 19:24:51;;;;;;;6.70;5.37;;;15.10;31.90;;;;;;10438888;28;20600;-74
2021/10/09 19:29:54;;;;;;;9.73;6.43;;;15.00;32.10;;;;;;10437947;28;20227;-74
2021/10/09 19:35:03;;;;;;;6.93;6.23;;;14.90;32.00;;;;;;10438994;28;20568;-74
2021/10/09 19:40:07;;;;;;;8.23;6.87;;;14.80;32.00;;;;;;10439658;28;20244;-73
2021/10/09 19:45:10;;;;;;;10.20;8.20;;;14.70;31.80;;;;;;10433348;28;20629;-74
2021/10/09 19:50:17;;;;;;;7.73;7.03;;;14.70;31.80;;;;;;10435308;28;20605;-73
2021/10/09 19:55:23;;;;;;;7.37;6.63;;;14.60;31.80;;;;;;10433569;28;20921;-73
2021/10/09 20:00:26;;;;;;;7.53;6.47;;;14.50;31.70;;;;;;10444259;28;20235;-75
2021/10/09 20:05:31;;;;;;;10.13;8.00;;;14.40;31.50;;;;;;10446067;28;20236;-73
2021/10/09 20:10:40;;;;;;;8.13;7.30;;;14.30;31.50;;;;;;10439575;28;20221;-73
2021/10/09 20:15:43;;;;;;;9.23;7.87;;;14.20;31.40;;;;;;10444045;28;20229;-74
2021/10/09 20:20:49;;;;;;;11.47;8.90;;;14.10;31.40;;;;;;10440720;28;20949;-75
2021/10/09 20:25:53;;;;;;;9.73;8.63;;;14.00;31.80;;;;;;10440906;28;20233;-74
2021/10/09 20:30:57;;;;;;;11.03;9.93;;;13.90;31.90;;;;;;10443660;28;20644;-74
2021/10/09 20:36:02;;;;;;;12.87;11.13;;;13.80;32.00;;;;;;10443606;28;20251;-74
2021/10/09 20:41:05;;;;;;;10.53;9.53;;;13.80;32.30;;;;;;10445321;28;20225;-74
2021/10/09 20:46:09;;;;;;;10.87;9.77;;;13.70;32.20;;;;;;10454308;28;20944;-74
2021/10/09 20:51:13;;;;;;;10.30;8.63;;;13.70;32.20;;;;;;10444891;28;20601;-74
2021/10/09 20:56:17;;;;;;;10.07;9.00;;;13.60;32.30;;;;;;10445297;28;20232;-74
2021/10/09 21:01:21;;;;;;;8.03;7.23;;;13.50;32.30;;;;;;10446428;28;20579;-74
2021/10/09 21:06:25;;;;;;;9.33;8.37;;;13.50;32.40;;;;;;10448157;28;20232;-74
2021/10/09 21:11:31;;;;;;;11.83;8.57;;;13.40;32.60;;;;;;10453354;28;20246;-74
2021/10/09 21:22:06;;;;;;;9.77;8.70;;;13.20;32.50;;;;;;10446007;28;20225;-74
2021/10/09 21:27:09;;;;;;;11.00;8.63;;;13.10;32.80;;;;;;10444527;28;20228;-75
2021/10/09 21:32:13;;;;;;;8.13;7.30;;;13.10;32.70;;;;;;10452919;28;20228;-74
2021/10/09 21:37:17;;;;;;;9.07;8.27;;;13.00;32.80;;;;;;10442618;28;20225;-75
2021/10/09 21:42:21;;;;;;;9.77;7.63;;;12.90;32.80;;;;;;10442385;28;20372;-74
2021/10/09 21:47:24;;;;;;;10.50;8.47;;;12.80;32.70;;;;;;10448145;28;20238;-75
2021/10/09 21:52:28;;;;;;;8.97;8.07;;;12.80;32.70;;;;;;10443987;28;20898;-75
2021/10/09 21:57:36;;;;;;;9.30;8.03;;;12.80;32.90;;;;;;10444210;28;20235;-73
2021/10/09 22:02:47;;;;;;;7.43;6.50;;;12.70;32.90;;;;;;10444740;28;20228;-73
2021/10/09 22:18:35;;;;;;;9.90;8.17;;;12.50;32.90;;;;;;10449295;28;20318;-74
2021/10/09 22:34:24;;;;;;;8.77;7.87;;;12.20;32.90;;;;;;10447219;28;20246;-73
2021/10/09 22:39:28;;;;;;;9.13;7.90;;;12.20;33.10;;;;;;10443796;28;20229;-75
2021/10/09 22:44:32;;;;;;;10.00;7.83;;;12.20;33.40;;;;;;10444245;28;20237;-74
2021/10/09 22:49:36;;;;;;;8.57;7.30;;;12.10;33.20;;;;;;10448202;28;20229;-74
2021/10/09 22:54:40;;;;;;;7.87;7.00;;;12.10;33.30;;;;;;10449745;28;20228;-74
2021/10/09 22:59:44;;;;;;;7.77;6.97;;;12.00;33.50;;;;;;10445446;28;20235;-74
2021/10/09 23:04:47;;;;;;;7.73;7.03;;;12.00;33.40;;;;;;10442916;28;21031;-74
2021/10/09 23:09:52;;;;;;;10.17;7.57;;;11.90;33.30;;;;;;10447915;28;20221;-74
2021/10/09 23:14:56;;;;;;;8.87;7.57;;;11.90;33.50;;;;;;10447782;28;20228;-74
2021/10/09 23:19:59;;;;;;;8.90;7.83;;;11.80;33.40;;;;;;10440527;28;20231;-74
2021/10/09 23:25:04;;;;;;;10.10;7.60;;;11.80;33.30;;;;;;10448234;28;20706;-74
2021/10/09 23:30:09;;;;;;;9.00;7.97;;;11.70;33.40;;;;;;10445308;28;20224;-74
2021/10/09 23:35:12;;;;;;;10.90;8.23;;;11.70;33.30;;;;;;10455808;28;20225;-74
2021/10/09 23:40:17;;;;;;;7.20;6.50;;;11.70;33.40;;;;;;10442910;28;20229;-74
2021/10/09 23:45:20;;;;;;;8.33;7.53;;;11.60;33.40;;;;;;10444318;28;20678;-74
2021/10/09 23:50:24;;;;;;;9.70;8.70;;;11.50;33.20;;;;;;10447087;28;20241;-74
2021/10/09 23:55:29;;;;;;;11.30;8.63;;;11.50;33.30;;;;;;10450720;28;20721;-74
